Time;durP1;ratioP1;P1;durP2;ratioP2;P2;SDS_P1;SDS_P2;PMS_P1;PMS_P2;Temp;Humidity;BMP_temperature;BMP_pressure;BME280_temperature;BME280_humidity;BME280_pressure;Samples;Min_cycle;Max_cycle;Signal;HPM_P1;HPM_P2
2021/06/23 00:00:34;;;;;;;23.48;11.13;;;;;;;25.17;65.75;100289.78;5041760;28;20049;-64
2021/06/23 00:03:00;;;;;;;19.17;10.63;;;;;;;25.10;66.26;100283.22;5050084;28;20076;-63
2021/06/23 00:05:26;;;;;;;22.27;11.93;;;;;;;25.13;66.14;100290.94;5051723;28;20044;-63
2021/06/23 00:07:52;;;;;;;21.77;11.00;;;;;;;25.10;66.36;100291.19;5065689;28;20052;-63
2021/06/23 00:10:19;;;;;;;18.40;10.45;;;;;;;25.05;66.42;100294.13;5065746;28;20055;-63
2021/06/23 00:12:46;;;;;;;22.10;10.77;;;;;;;24.98;66.43;100290.25;5049896;28;20260;-64
2021/06/23 00:15:16;;;;;;;21.27;10.45;;;;;;;25.01;67.02;100297.13;5045006;28;20072;-64
2021/06/23 00:17:43;;;;;;;24.67;10.60;;;;;;;24.97;66.74;100283.28;5045575;28;20056;-64
2021/06/23 00:20:10;;;;;;;22.20;10.55;;;;;;;24.93;66.48;100279.97;5044833;28;20051;-64
2021/06/23 00:22:36;;;;;;;21.17;10.52;;;;;;;24.91;66.45;100281.91;5044419;28;20060;-64
2021/06/23 00:25:03;;;;;;;21.23;10.52;;;;;;;24.91;66.54;100275.75;5059888;28;20234;-61
2021/06/23 00:27:29;;;;;;;26.20;10.55;;;;;;;24.89;66.57;100289.09;5065510;28;20055;-65
2021/06/23 00:30:06;;;;;;;21.70;10.38;;;;;;;24.86;66.73;100281.38;5052662;28;20352;-64
2021/06/23 00:32:34;;;;;;;20.00;10.32;;;;;;;24.86;66.96;100293.78;5055080;28;20052;-64
2021/06/23 00:35:00;;;;;;;14.40;10.02;;;;;;;24.78;66.75;100281.06;5040471;28;20283;-63
2021/06/23 00:37:26;;;;;;;20.65;10.43;;;;;;;24.79;67.18;100283.63;5051425;28;20338;-63
2021/06/23 00:39:52;;;;;;;20.05;10.55;;;;;;;24.77;67.36;100284.66;5042794;28;20041;-63
2021/06/23 00:42:17;;;;;;;18.73;10.48;;;;;;;24.79;67.39;100285.44;5036751;28;20334;-63
2021/06/23 00:44:44;;;;;;;21.63;10.93;;;;;;;24.78;67.29;100281.06;5045293;28;20037;-64
2021/06/23 00:47:10;;;;;;;24.10;10.80;;;;;;;24.75;67.51;100281.31;5056206;28;20060;-63
2021/06/23 00:49:37;;;;;;;22.45;10.63;;;;;;;24.68;67.83;100282.69;5045288;28;20068;-64
2021/06/23 00:52:04;;;;;;;23.27;10.35;;;;;;;24.64;67.85;100271.47;5053169;28;20255;-62
2021/06/23 00:54:30;;;;;;;17.67;9.85;;;;;;;24.68;68.26;100280.03;5045189;28;20045;-60
2021/06/23 00:56:57;;;;;;;16.70;9.20;;;;;;;24.68;68.15;100277.41;5064562;28;20041;-61
2021/06/23 00:59:24;;;;;;;17.92;9.95;;;;;;;24.65;68.11;100270.50;5056502;28;20041;-61
2021/06/23 01:01:50;;;;;;;17.30;10.38;;;;;;;24.66;67.96;100274.03;5044676;28;20045;-61
2021/06/23 01:04:17;;;;;;;15.43;9.85;;;;;;;24.61;67.86;100272.53;5053457;28;20247;-62
2021/06/23 01:06:43;;;;;;;15.93;10.15;;;;;;;24.60;68.59;100272.66;5064595;28;20040;-62
2021/06/23 01:09:09;;;;;;;23.05;10.45;;;;;;;24.60;68.45;100289.38;5065061;28;20055;-61
2021/06/23 01:12:20;;;;;;;19.58;10.50;;;;;;;24.59;69.28;100284.16;5059421;28;20052;-61
2021/06/23 01:14:48;;;;;;;21.30;11.30;;;;;;;24.54;68.88;100289.78;5020385;28;20056;-62
2021/06/23 01:17:14;;;;;;;25.13;10.27;;;;;;;24.52;69.08;100288.19;5046241;28;20057;-63
2021/06/23 01:19:43;;;;;;;18.90;10.45;;;;;;;24.42;68.96;100269.47;5044808;28;20053;-64
2021/06/23 01:22:11;;;;;;;18.60;10.23;;;;;;;24.54;69.18;100292.44;5044070;28;20037;-63
2021/06/23 01:24:37;;;;;;;20.02;10.48;;;;;;;24.52;69.18;100285.56;5043471;28;20041;-63
2021/06/23 01:27:03;;;;;;;17.65;10.57;;;;;;;24.50;69.33;100288.31;5044327;28;20218;-63
2021/06/23 01:29:29;;;;;;;15.40;9.80;;;;;;;24.51;69.32;100300.56;5044589;28;20029;-62
2021/06/23 01:31:54;;;;;;;19.98;9.77;;;;;;;24.50;69.72;100298.91;5043840;28;20024;-62
2021/06/23 01:34:21;;;;;;;21.55;9.95;;;;;;;24.40;69.54;100295.19;5044480;28;20500;-63
2021/06/23 01:36:47;;;;;;;19.52;10.20;;;;;;;24.46;69.57;100308.03;5044049;28;20055;-63
2021/06/23 01:39:13;;;;;;;17.15;9.98;;;;;;;24.45;69.81;100309.78;5044269;28;20021;-62
2021/06/23 01:41:39;;;;;;;17.10;10.77;;;;;;;24.43;70.03;100298.47;5043669;28;20214;-63
2021/06/23 01:44:05;;;;;;;21.33;11.07;;;;;;;24.44;70.06;100307.25;5044095;28;20075;-62
2021/06/23 01:46:30;;;;;;;18.42;11.93;;;;;;;24.44;70.22;100301.97;5043832;28;20245;-63
2021/06/23 01:48:56;;;;;;;22.88;11.15;;;;;;;24.43;69.97;100308.22;5044102;28;20025;-62
2021/06/23 01:51:23;;;;;;;16.50;10.70;;;;;;;24.43;70.36;100305.59;5043537;28;20048;-62
2021/06/23 01:53:49;;;;;;;20.83;10.43;;;;;;;24.45;70.42;100306.31;5043713;28;20055;-63
2021/06/23 01:56:15;;;;;;;20.90;11.35;;;;;;;24.46;70.03;100305.38;5043931;28;20018;-63
2021/06/23 01:58:43;;;;;;;20.40;11.23;;;;;;;24.19;70.07;100257.84;5043705;28;20053;-62
2021/06/23 02:01:09;;;;;;;18.17;11.27;;;;;;;24.45;70.54;100304.50;5043542;28;20087;-64
2021/06/23 02:03:34;;;;;;;20.02;11.40;;;;;;;24.49;70.29;100297.22;5033623;28;20017;-63
2021/06/23 02:06:04;;;;;;;19.13;11.48;;;;;;;24.51;70.61;100303.22;5029878;28;20093;-63
2021/06/23 02:08:55;;;;;;;23.63;11.70;;;;;;;24.32;70.92;100265.78;5043829;28;20059;-63
2021/06/23 02:11:36;;;;;;;21.73;11.13;;;;;;;24.54;70.77;100308.34;5044465;28;20329;-62
2021/06/23 02:14:21;;;;;;;21.08;11.70;;;;;;;24.56;70.58;100305.56;5043796;28;20066;-62
2021/06/23 02:16:49;;;;;;;18.95;10.57;;;;;;;24.60;70.59;100312.38;5043556;28;20057;-63
2021/06/23 02:19:16;;;;;;;25.73;11.52;;;;;;;24.64;70.50;100306.75;5043410;28;20078;-62
2021/06/23 02:21:42;;;;;;;17.55;11.07;;;;;;;24.59;70.36;100303.53;5045398;28;20056;-62
2021/06/23 02:24:10;;;;;;;19.58;10.35;;;;;;;24.61;70.38;100298.16;5043455;28;20073;-62
2021/06/23 02:26:36;;;;;;;20.15;11.68;;;;;;;24.74;70.59;100314.91;5042814;28;20045;-62
2021/06/23 02:29:05;;;;;;;20.50;10.88;;;;;;;24.47;70.53;100264.69;5043125;28;20199;-61
2021/06/23 02:31:34;;;;;;;18.13;10.90;;;;;;;24.75;70.87;100307.78;5049322;28;20059;-61
2021/06/23 02:34:06;;;;;;;20.15;13.98;;;;;;;24.83;70.65;100309.88;5058220;28;20037;-62
2021/06/23 02:36:32;;;;;;;17.02;10.80;;;;;;;24.87;70.33;100301.63;5045580;28;20270;-62
2021/06/23 02:38:58;;;;;;;20.63;11.15;;;;;;;24.95;70.18;100309.03;5055616;28;20097;-62
2021/06/23 02:41:24;;;;;;;18.52;11.13;;;;;;;25.01;70.27;100318.34;5048897;28;20353;-62
2021/06/23 02:43:50;;;;;;;18.25;10.77;;;;;;;25.04;70.19;100312.81;5042966;28;20048;-61
2021/06/23 02:46:17;;;;;;;21.75;11.77;;;;;;;25.00;70.94;100312.19;5056832;28;20045;-61
2021/06/23 02:48:43;;;;;;;24.40;12.55;;;;;;;24.93;71.08;100308.28;5042846;28;20045;-62
2021/06/23 02:51:19;;;;;;;18.52;11.48;;;;;;;24.93;71.21;100301.19;5043097;28;20032;-62
2021/06/23 02:53:47;;;;;;;17.50;10.65;;;;;;;25.05;70.62;100311.84;5042536;28;20040;-62
2021/06/23 02:56:14;;;;;;;23.58;11.10;;;;;;;25.18;70.39;100314.47;5042792;28;20041;-61
2021/06/23 02:58:42;;;;;;;23.80;11.35;;;;;;;25.22;70.17;100306.16;5042865;28;20052;-61
2021/06/23 03:01:10;;;;;;;23.95;11.93;;;;;;;25.28;70.39;100305.75;5042771;28;20045;-63
2021/06/23 03:03:36;;;;;;;17.25;10.32;;;;;;;25.36;70.28;100309.66;5031963;28;20294;-63
2021/06/23 03:06:03;;;;;;;21.75;11.43;;;;;;;25.46;69.98;100315.97;5023044;28;20049;-63
2021/06/23 03:08:29;;;;;;;19.08;10.98;;;;;;;25.55;69.81;100314.44;5057586;28;20333;-62
2021/06/23 03:10:55;;;;;;;23.60;11.82;;;;;;;25.64;69.59;100311.13;5062677;28;20278;-62
2021/06/23 03:13:21;;;;;;;17.10;10.80;;;;;;;25.67;69.33;100317.03;5044046;28;20052;-64
2021/06/23 03:15:47;;;;;;;19.15;11.27;;;;;;;25.75;69.25;100313.81;5043334;28;20033;-63
2021/06/23 03:18:13;;;;;;;15.60;11.15;;;;;;;25.83;69.11;100327.34;5062510;28;20389;-62
2021/06/23 03:20:39;;;;;;;19.52;11.93;;;;;;;25.91;68.58;100324.13;5062474;28;20321;-62
2021/06/23 03:23:05;;;;;;;22.05;12.02;;;;;;;25.94;68.72;100309.78;5046270;28;20063;-62
2021/06/23 03:25:31;;;;;;;18.45;11.30;;;;;;;26.09;68.87;100326.34;5042576;28;20076;-61
2021/06/23 03:27:59;;;;;;;23.40;12.07;;;;;;;26.14;68.64;100335.66;5042476;28;20318;-62
2021/06/23 03:30:26;;;;;;;26.08;13.25;;;;;;;26.18;68.74;100328.28;5042379;28;20068;-61
2021/06/23 03:32:53;;;;;;;18.88;11.70;;;;;;;26.26;68.33;100309.97;5041813;28;20052;-62
2021/06/23 03:35:21;;;;;;;21.52;12.68;;;;;;;26.39;68.46;100322.31;5041092;28;20057;-62
2021/06/23 03:37:48;;;;;;;18.90;12.32;;;;;;;26.52;67.96;100317.72;5043186;28;20052;-62
2021/06/23 03:40:15;;;;;;;23.15;13.07;;;;;;;26.67;67.46;100313.84;5046397;28;20060;-63
2021/06/23 03:42:41;;;;;;;22.05;11.95;;;;;;;26.83;66.68;100315.31;5045954;28;20359;-62
2021/06/23 03:45:08;;;;;;;27.90;12.38;;;;;;;26.85;66.66;100305.41;5046318;28;20049;-62
2021/06/23 03:47:34;;;;;;;30.00;12.88;;;;;;;26.89;67.37;100314.00;5045582;28;20045;-63
2021/06/23 03:49:59;;;;;;;19.73;11.40;;;;;;;26.95;66.15;100311.69;5046084;28;20017;-62
2021/06/23 03:52:25;;;;;;;25.00;13.00;;;;;;;27.03;66.57;100311.91;5048111;28;20044;-62
2021/06/23 03:54:52;;;;;;;24.13;10.80;;;;;;;27.10;65.36;100298.13;5066098;28;20108;-62
2021/06/23 03:57:18;;;;;;;27.70;11.98;;;;;;;27.21;64.08;100308.72;5066094;28;20349;-63
2021/06/23 03:59:44;;;;;;;24.73;11.77;;;;;;;27.31;63.91;100308.84;5065999;28;20080;-63
2021/06/23 04:02:10;;;;;;;24.10;10.88;;;;;;;27.36;62.20;100298.66;5057945;28;20017;-63
2021/06/23 04:04:36;;;;;;;23.77;10.75;;;;;;;27.49;61.98;100301.16;5049372;28;20049;-62
2021/06/23 04:07:02;;;;;;;19.92;10.52;;;;;;;27.54;61.70;100305.13;5064539;28;20338;-62
2021/06/23 04:09:28;;;;;;;27.08;10.15;;;;;;;27.61;60.92;100305.47;5064831;28;20055;-62
2021/06/23 04:11:53;;;;;;;27.77;9.65;;;;;;;27.67;58.95;100306.78;5060236;28;20218;-61
2021/06/23 04:14:19;;;;;;;25.95;9.95;;;;;;;27.66;60.05;100315.72;5061725;28;20024;-62
2021/06/23 04:16:46;;;;;;;21.77;10.50;;;;;;;27.70;59.87;100314.50;5065823;28;20032;-62
2021/06/23 04:19:11;;;;;;;25.38;9.68;;;;;;;27.76;59.30;100308.66;5046569;28;20364;-63
2021/06/23 04:21:37;;;;;;;26.58;10.13;;;;;;;27.83;58.89;100314.31;5045410;28;20021;-62
2021/06/23 04:24:04;;;;;;;28.90;9.85;;;;;;;27.84;58.17;100316.84;5045408;28;20096;-62
2021/06/23 04:26:29;;;;;;;30.63;10.02;;;;;;;27.92;57.44;100318.88;5045661;28;20045;-62
2021/06/23 04:28:55;;;;;;;25.50;10.10;;;;;;;27.93;57.55;100320.53;5045091;28;20025;-61
2021/06/23 04:31:21;;;;;;;27.42;11.35;;;;;;;27.99;56.75;100319.22;5045553;28;20037;-62
2021/06/23 04:33:47;;;;;;;22.70;10.52;;;;;;;27.95;53.94;100307.97;5025712;28;20026;-62
2021/06/23 04:36:13;;;;;;;28.70;9.73;;;;;;;28.15;54.48;100316.13;5025643;28;20057;-62
2021/06/23 04:38:38;;;;;;;23.10;9.82;;;;;;;28.13;55.61;100304.72;5035742;28;20027;-63
2021/06/23 04:41:05;;;;;;;26.08;9.40;;;;;;;28.24;55.32;100307.31;5065586;28;20039;-63
2021/06/23 04:43:31;;;;;;;28.52;9.50;;;;;;;28.29;55.94;100318.44;5046516;28;20385;-63
2021/06/23 04:45:57;;;;;;;22.30;9.43;;;;;;;28.40;55.52;100306.84;5045213;28;20017;-63
2021/06/23 04:48:23;;;;;;;20.25;9.23;;;;;;;28.40;55.00;100306.84;5044451;28;20058;-63
2021/06/23 04:50:49;;;;;;;20.65;8.95;;;;;;;28.44;54.55;100316.25;5045057;28;20366;-63
2021/06/23 04:53:15;;;;;;;19.65;8.95;;;;;;;28.61;54.36;100314.78;5044844;28;20314;-63
2021/06/23 04:55:40;;;;;;;17.35;8.40;;;;;;;28.65;53.76;100305.56;5044788;28;20029;-62
2021/06/23 04:58:06;;;;;;;19.75;9.02;;;;;;;28.79;53.31;100300.84;5045085;28;20319;-62
2021/06/23 05:00:33;;;;;;;17.02;8.35;;;;;;;28.90;53.15;100314.06;5044950;28;20049;-63
2021/06/23 05:02:58;;;;;;;20.50;8.95;;;;;;;28.96;52.86;100308.22;5044433;28;20045;-63
2021/06/23 05:05:24;;;;;;;20.73;8.95;;;;;;;28.95;52.50;100301.19;5043035;28;20033;-63
2021/06/23 05:07:54;;;;;;;16.63;7.72;;;;;;;29.09;52.52;100307.94;5042983;28;20362;-63
2021/06/23 05:10:20;;;;;;;17.50;7.57;;;;;;;29.19;52.20;100308.81;5042106;28;20034;-63
2021/06/23 05:12:46;;;;;;;18.50;7.65;;;;;;;29.22;51.95;100313.03;5040588;28;20065;-62
2021/06/23 05:15:12;;;;;;;21.15;7.80;;;;;;;29.26;51.82;100315.31;5042320;28;20055;-63
2021/06/23 05:17:38;;;;;;;18.05;7.68;;;;;;;29.50;51.61;100322.06;5040271;28;20061;-61
2021/06/23 05:20:05;;;;;;;14.43;6.97;;;;;;;29.58;51.29;100316.84;5042468;28;20040;-61
2021/06/23 05:22:31;;;;;;;13.70;7.78;;;;;;;29.62;51.00;100320.09;5041028;28;20052;-61
2021/06/23 05:25:01;;;;;;;18.75;6.82;;;;;;;29.73;50.76;100313.75;5042841;28;20041;-61
2021/06/23 05:27:27;;;;;;;11.90;6.70;;;;;;;29.95;50.61;100312.63;5037506;28;20059;-61
2021/06/23 05:29:53;;;;;;;15.45;7.38;;;;;;;29.95;49.66;100315.31;5042686;28;20202;-61
2021/06/23 05:32:19;;;;;;;14.98;5.70;;;;;;;30.04;47.01;100309.09;5042658;28;20080;-62
2021/06/23 05:34:45;;;;;;;13.95;5.75;;;;;;;30.01;47.85;100314.72;5041457;28;20029;-62
2021/06/23 05:37:10;;;;;;;9.73;5.10;;;;;;;30.11;48.21;100312.91;5042604;28;20025;-61
2021/06/23 05:39:36;;;;;;;14.40;4.95;;;;;;;30.02;46.13;100312.91;5039381;28;20048;-61
2021/06/23 05:42:03;;;;;;;18.35;7.32;;;;;;;30.13;48.30;100321.59;5042106;28;20022;-62
2021/06/23 05:44:30;;;;;;;15.40;6.78;;;;;;;30.09;48.88;100320.19;5042436;28;20045;-62
2021/06/23 05:46:56;;;;;;;10.57;6.40;;;;;;;30.07;48.48;100313.31;5039620;28;20072;-61
2021/06/23 05:49:22;;;;;;;18.98;6.70;;;;;;;30.12;46.73;100314.56;5036427;28;20044;-61
2021/06/23 05:51:48;;;;;;;23.70;6.28;;;;;;;30.27;45.45;100314.09;5042191;28;20021;-63
2021/06/23 05:54:14;;;;;;;16.73;6.00;;;;;;;30.15;47.91;100309.94;5042303;28;20036;-61
2021/06/23 05:56:40;;;;;;;12.20;5.75;;;;;;;30.06;47.77;100312.47;5042138;28;20900;-60
2021/06/23 05:59:06;;;;;;;12.77;6.50;;;;;;;29.85;47.88;100303.81;5039692;28;20037;-60
2021/06/23 06:01:32;;;;;;;12.00;5.70;;;;;;;29.90;46.99;100314.88;5038113;28;20025;-60
2021/06/23 06:03:58;;;;;;;16.63;6.13;;;;;;;29.98;46.90;100296.31;5048415;28;20245;-61
2021/06/23 06:06:24;;;;;;;8.63;5.00;;;;;;;30.29;46.77;100299.59;5041972;28;20056;-60
2021/06/23 06:08:49;;;;;;;15.45;5.38;;;;;;;30.66;45.13;100299.75;5056431;28;20025;-61
2021/06/23 06:11:15;;;;;;;15.23;5.68;;;;;;;30.83;45.72;100298.13;5043692;28;20048;-59
2021/06/23 06:13:41;;;;;;;13.77;5.82;;;;;;;30.73;45.31;100299.03;5043537;28;20023;-59
2021/06/23 06:16:07;;;;;;;15.75;5.88;;;;;;;30.84;43.73;100300.66;5043598;28;20045;-59
2021/06/23 06:18:33;;;;;;;17.48;6.13;;;;;;;30.75;45.91;100302.41;5043021;28;20017;-60
2021/06/23 06:20:59;;;;;;;17.05;6.10;;;;;;;30.83;46.05;100298.13;5043537;28;20072;-59
2021/06/23 06:23:25;;;;;;;13.98;5.60;;;;;;;30.79;46.74;100295.75;5043156;28;20028;-59
2021/06/23 06:25:52;;;;;;;12.82;5.43;;;;;;;30.96;44.56;100295.97;5043183;28;20064;-59
2021/06/23 06:28:19;;;;;;;13.88;5.18;;;;;;;31.05;44.53;100299.59;5044124;28;20047;-59
2021/06/23 06:30:45;;;;;;;14.85;5.68;;;;;;;31.09;44.84;100295.63;5039704;28;20049;-59
2021/06/23 06:33:12;;;;;;;13.90;6.20;;;;;;;31.14;44.24;100296.84;5041038;28;20053;-59
2021/06/23 06:35:38;;;;;;;18.92;6.88;;;;;;;31.21;46.00;100290.88;5023161;28;20056;-59
2021/06/23 06:38:04;;;;;;;14.10;5.85;;;;;;;31.15;45.73;100292.34;5040663;28;20334;-59
2021/06/23 06:40:30;;;;;;;13.02;5.70;;;;;;;31.14;43.37;100299.53;5042584;28;20056;-59
2021/06/23 06:42:56;;;;;;;17.35;5.85;;;;;;;31.32;43.59;100298.69;5042434;28;20048;-59
2021/06/23 06:45:23;;;;;;;11.60;5.15;;;;;;;31.32;45.07;100294.16;5044318;28;20053;-60
2021/06/23 06:47:49;;;;;;;15.65;5.60;;;;;;;31.42;45.72;100304.78;5043932;28;20052;-60
2021/06/23 06:50:15;;;;;;;7.70;5.25;;;;;;;31.37;45.34;100309.78;5041970;28;20071;-61
2021/06/23 06:52:41;;;;;;;14.60;5.90;;;;;;;31.48;44.40;100304.19;5052013;28;20060;-60
2021/06/23 06:55:09;;;;;;;10.40;4.70;;;;;;;31.41;43.83;100272.81;5062936;28;20392;-60
2021/06/23 06:57:35;;;;;;;15.13;4.88;;;;;;;31.57;42.68;100305.16;5054684;28;20039;-61
2021/06/23 07:00:02;;;;;;;8.95;4.68;;;;;;;31.67;44.16;100308.56;5054582;28;20060;-61
2021/06/23 07:02:29;;;;;;;8.43;4.78;;;;;;;31.67;45.33;100307.75;5042444;28;20041;-61
2021/06/23 07:04:55;;;;;;;10.30;4.35;;;;;;;31.70;45.19;100302.06;5041735;28;20013;-60
2021/06/23 07:07:20;;;;;;;8.05;4.65;;;;;;;31.85;43.69;100305.00;5042164;28;20032;-61
2021/06/23 07:09:46;;;;;;;9.02;4.40;;;;;;;31.87;43.83;100308.41;5042263;28;20344;-60
2021/06/23 07:12:12;;;;;;;10.63;4.30;;;;;;;32.05;44.28;100307.50;5041940;28;20261;-60
2021/06/23 07:14:38;;;;;;;8.88;4.30;;;;;;;32.12;41.80;100312.06;5042460;28;20337;-60
2021/06/23 07:17:04;;;;;;;10.00;4.25;;;;;;;32.20;40.92;100307.81;5042058;28;20076;-60
2021/06/23 07:19:30;;;;;;;7.63;4.15;;;;;;;32.30;38.96;100306.69;5042074;28;20095;-60
2021/06/23 07:21:56;;;;;;;9.75;4.20;;;;;;;32.45;39.98;100301.56;5042194;28;20040;-60
2021/06/23 07:24:22;;;;;;;9.73;3.97;;;;;;;32.50;40.97;100303.75;5041967;28;20084;-60
2021/06/23 07:26:52;;;;;;;9.20;4.05;;;;;;;32.40;40.90;100313.78;5042128;28;20029;-60
2021/06/23 07:29:18;;;;;;;6.55;4.10;;;;;;;32.47;38.68;100321.00;5051853;28;20056;-60
2021/06/23 07:31:58;;;;;;;6.78;4.00;;;;;;;32.51;37.75;100310.81;5042924;28;20025;-61
2021/06/23 07:37:07;;;;;;;10.07;3.88;;;;;;;32.79;37.72;100318.66;5037182;28;20060;-61
2021/06/23 07:39:34;;;;;;;9.65;4.13;;;;;;;32.80;39.06;100325.72;5041158;28;20052;-62
2021/06/23 07:42:01;;;;;;;7.72;4.07;;;;;;;32.32;37.55;100320.78;5041000;28;20315;-62
2021/06/23 07:44:39;;;;;;;10.40;3.78;;;;;;;32.47;39.97;100310.28;5059743;28;20041;-62
2021/06/23 07:47:23;;;;;;;7.60;3.88;;;;;;;32.56;38.84;100313.84;5051087;28;20056;-61
2021/06/23 07:49:50;;;;;;;5.68;3.42;;;;;;;32.55;38.43;100319.38;5051538;28;20043;-60
2021/06/23 08:08:15;;;;;;;14.13;4.75;;;;;;;32.70;37.40;100323.16;5042913;28;20075;-61
2021/06/23 08:13:12;;;;;;;10.13;4.22;;;;;;;32.81;36.70;100322.88;5041791;28;20289;-61
2021/06/23 08:15:40;;;;;;;9.68;4.57;;;;;;;32.87;36.57;100321.38;5044262;28;20999;-61
2021/06/23 08:18:07;;;;;;;11.70;4.78;;;;;;;33.02;36.18;100329.63;5054857;28;20342;-61
2021/06/23 08:20:33;;;;;;;12.88;4.60;;;;;;;32.79;38.17;100322.16;5039736;28;20045;-62
2021/06/23 08:23:00;;;;;;;23.95;4.90;;;;;;;32.98;38.35;100322.91;5043838;28;20322;-62
2021/06/23 08:25:26;;;;;;;9.13;4.38;;;;;;;32.96;39.35;100330.28;5053919;28;20040;-62
2021/06/23 08:27:52;;;;;;;17.50;4.78;;;;;;;32.88;39.05;100328.44;5048697;28;20048;-62
2021/06/23 08:30:20;;;;;;;16.42;4.72;;;;;;;32.99;36.67;100335.31;5043047;28;20060;-61
2021/06/23 08:32:46;;;;;;;13.10;4.93;;;;;;;33.17;35.23;100328.00;5046487;28;20048;-61
2021/06/23 08:35:13;;;;;;;14.07;4.90;;;;;;;33.37;34.96;100330.41;5042939;28;20041;-62
2021/06/23 08:37:40;;;;;;;12.52;4.85;;;;;;;33.37;36.86;100325.03;5041062;28;20053;-62
2021/06/23 08:40:08;;;;;;;8.10;4.18;;;;;;;33.10;37.10;100280.50;5042535;28;20083;-62
2021/06/23 08:42:35;;;;;;;11.48;4.13;;;;;;;33.43;35.39;100326.22;5044958;28;20270;-62
2021/06/23 08:45:02;;;;;;;10.88;5.10;;;;;;;33.09;34.96;100322.59;5043732;28;20057;-61
2021/06/23 08:47:30;;;;;;;9.43;4.45;;;;;;;33.12;37.08;100324.13;5048544;28;20052;-62
2021/06/23 08:49:57;;;;;;;10.27;4.55;;;;;;;33.19;37.79;100320.63;5064659;28;20054;-62
2021/06/23 08:52:23;;;;;;;18.77;5.63;;;;;;;33.45;36.35;100330.44;5059209;28;20037;-62
2021/06/23 08:54:55;;;;;;;13.27;5.03;;;;;;;33.06;37.75;100320.25;5045041;28;20029;-62
2021/06/23 08:57:22;;;;;;;14.93;5.15;;;;;;;32.93;37.99;100320.72;5044945;28;20048;-63
2021/06/23 08:59:47;;;;;;;16.63;5.35;;;;;;;33.16;37.35;100315.56;5048508;28;20048;-62
2021/06/23 09:02:15;;;;;;;8.02;4.80;;;;;;;33.25;36.94;100292.31;5044692;28;20014;-62
2021/06/23 09:04:57;;;;;;;14.48;5.05;;;;;;;33.40;37.52;100319.34;5047101;28;20059;-62
2021/06/23 09:07:35;;;;;;;21.23;6.13;;;;;;;33.02;38.54;100278.63;5064870;28;20337;-61
2021/06/23 09:10:01;;;;;;;11.55;5.15;;;;;;;33.09;38.14;100311.03;5061528;28;20361;-61
2021/06/23 09:12:27;;;;;;;13.68;5.13;;;;;;;33.44;37.69;100314.47;5054267;28;20048;-60
2021/06/23 09:14:53;;;;;;;13.07;5.00;;;;;;;33.52;36.46;100312.63;5044666;28;20025;-61
2021/06/23 09:17:19;;;;;;;13.02;5.70;;;;;;;33.41;35.85;100310.28;5060940;28;20048;-61
2021/06/23 09:19:49;;;;;;;12.02;5.28;;;;;;;33.67;36.41;100315.47;5047898;28;20024;-62
2021/06/23 09:22:46;;;;;;;11.75;5.00;;;;;;;33.74;36.53;100307.59;5048632;28;20048;-61
2021/06/23 09:25:12;;;;;;;13.10;5.38;;;;;;;33.78;35.93;100306.28;5044474;28;20064;-62
2021/06/23 09:27:48;;;;;;;22.05;5.50;;;;;;;33.30;34.14;100278.38;5045799;28;20263;-61
2021/06/23 09:30:26;;;;;;;16.02;5.53;;;;;;;33.68;35.96;100308.28;5048034;28;20041;-62
2021/06/23 09:33:25;;;;;;;15.85;5.50;;;;;;;33.69;37.05;100275.00;5044026;28;20045;-62
2021/06/23 09:36:04;;;;;;;12.18;6.05;;;;;;;33.94;34.49;100301.91;5055368;28;20055;-62
2021/06/23 09:38:36;;;;;;;15.65;6.03;;;;;;;33.70;36.30;100303.56;5039391;28;20499;-62
2021/06/23 09:41:05;;;;;;;13.10;4.88;;;;;;;33.95;35.94;100300.88;5063312;28;20064;-62
2021/06/23 09:43:37;;;;;;;14.00;5.18;;;;;;;33.66;37.00;100261.91;5049349;28;20036;-62
2021/06/23 09:46:15;;;;;;;11.95;6.25;;;;;;;33.77;36.47;100285.78;5043403;28;20057;-62
2021/06/23 09:48:41;;;;;;;12.10;5.72;;;;;;;33.79;37.37;100288.28;5051074;28;20077;-62
2021/06/23 09:51:19;;;;;;;15.43;7.00;;;;;;;32.94;38.57;100257.16;5064089;28;20116;-62
2021/06/23 09:53:46;;;;;;;19.38;6.30;;;;;;;33.44;36.68;100287.63;5040185;28;20044;-61
2021/06/23 09:56:32;;;;;;;18.30;5.70;;;;;;;33.40;33.24;100244.13;5043998;28;20048;-61
2021/06/23 09:59:00;;;;;;;14.30;6.13;;;;;;;33.70;35.20;100282.91;5043278;28;20041;-62
2021/06/23 10:01:27;;;;;;;16.75;6.35;;;;;;;33.57;34.89;100246.81;5063318;28;20052;-62
2021/06/23 10:04:05;;;;;;;15.00;5.95;;;;;;;33.60;34.46;100251.84;5057745;28;20048;-61
2021/06/23 10:06:42;;;;;;;13.20;6.38;;;;;;;33.64;36.34;100307.75;5063341;28;20064;-62
2021/06/23 10:09:27;;;;;;;10.95;5.93;;;;;;;33.68;35.51;100244.63;5063500;28;20301;-61
2021/06/23 10:12:07;;;;;;;12.98;6.63;;;;;;;33.58;36.92;100272.66;5052281;28;20062;-63
2021/06/23 10:14:41;;;;;;;12.50;6.35;;;;;;;33.62;35.05;100239.94;5049429;28;20055;-62
2021/06/23 10:17:08;;;;;;;11.35;6.30;;;;;;;34.03;36.05;100277.53;5063117;28;20055;-62
2021/06/23 10:19:35;;;;;;;13.07;6.43;;;;;;;34.03;35.60;100272.16;5051656;28;20048;-62
2021/06/23 10:22:06;;;;;;;13.80;6.93;;;;;;;33.68;36.11;100265.28;5043172;28;20045;-62
2021/06/23 10:24:33;;;;;;;18.15;7.03;;;;;;;33.82;35.11;100272.69;5050682;28;20041;-63
2021/06/23 10:27:02;;;;;;;21.88;8.18;;;;;;;33.85;34.11;100269.66;5063465;28;20060;-62
2021/06/23 10:29:31;;;;;;;18.42;7.85;;;;;;;33.51;36.45;100276.03;5058288;28;20044;-63
2021/06/23 10:31:59;;;;;;;17.55;7.97;;;;;;;33.58;36.36;100267.28;5049236;28;20068;-62
2021/06/23 10:34:26;;;;;;;14.15;7.70;;;;;;;33.74;34.67;100261.91;5049074;28;20044;-62
2021/06/23 10:36:53;;;;;;;17.60;8.18;;;;;;;33.85;34.67;100266.13;5049605;28;20052;-61
2021/06/23 10:39:21;;;;;;;13.00;7.22;;;;;;;33.63;35.70;100230.00;5053173;28;20182;-60
2021/06/23 10:41:56;;;;;;;22.65;8.57;;;;;;;33.78;34.34;100260.59;5047928;28;20075;-59
2021/06/23 10:44:25;;;;;;;16.40;8.63;;;;;;;33.94;34.34;100275.03;5049099;28;20057;-61
2021/06/23 10:46:58;;;;;;;15.73;8.57;;;;;;;33.40;36.33;100230.69;5049630;28;20052;-61
2021/06/23 10:49:52;;;;;;;20.17;9.35;;;;;;;33.12;36.42;100260.56;5050702;28;20048;-61
2021/06/23 10:52:42;;;;;;;25.42;10.43;;;;;;;33.24;36.43;100268.31;5045958;28;20056;-61
2021/06/23 10:55:13;;;;;;;19.13;10.68;;;;;;;33.00;36.91;100260.00;5043150;28;20053;-61
2021/06/23 10:57:45;;;;;;;19.20;10.20;;;;;;;33.19;35.01;100223.13;5048945;28;20068;-61
2021/06/23 11:00:11;;;;;;;26.30;9.68;;;;;;;33.66;35.81;100253.84;5055031;28;20266;-60
2021/06/23 11:02:42;;;;;;;24.52;10.02;;;;;;;33.65;36.29;100228.84;5042563;28;20275;-60
2021/06/23 11:05:08;;;;;;;16.17;8.60;;;;;;;33.80;35.14;100253.19;5042015;28;20257;-62
2021/06/23 11:07:36;;;;;;;17.05;9.13;;;;;;;33.94;34.17;100256.19;5042395;28;20057;-63
2021/06/23 11:10:12;;;;;;;23.80;10.38;;;;;;;33.96;34.64;100256.84;5042233;28;20239;-62
2021/06/23 11:12:45;;;;;;;23.05;9.90;;;;;;;33.97;34.13;100253.16;5045431;28;20078;-62
2021/06/23 11:15:11;;;;;;;17.60;10.25;;;;;;;33.55;37.23;100245.13;5044203;28;20045;-62
2021/06/23 11:17:37;;;;;;;22.52;11.15;;;;;;;33.28;38.11;100240.09;5048816;28;20048;-64
2021/06/23 11:20:24;;;;;;;19.10;9.93;;;;;;;33.50;37.18;100236.72;5051902;28;20083;-63
2021/06/23 11:22:55;;;;;;;16.00;9.43;;;;;;;33.11;38.69;100199.81;5041879;28;20060;-62
2021/06/23 11:25:25;;;;;;;13.82;10.50;;;;;;;33.09;38.01;100238.56;5042041;28;20047;-64
2021/06/23 11:28:12;;;;;;;23.10;8.20;;;;;;;33.31;36.58;100221.00;5049473;28;20049;-63
2021/06/23 11:30:50;;;;;;;16.17;8.25;;;;;;;33.57;36.09;100236.06;5032811;28;20072;-62
2021/06/23 11:33:28;;;;;;;17.15;8.77;;;;;;;33.26;37.79;100234.91;5042106;28;20291;-63
2021/06/23 11:35:54;;;;;;;17.25;8.23;;;;;;;33.24;37.63;100226.19;5050791;28;20048;-63
2021/06/23 11:38:20;;;;;;;17.77;7.72;;;;;;;33.45;36.26;100227.50;5048633;28;20063;-62
2021/06/23 11:40:47;;;;;;;17.35;7.43;;;;;;;33.56;35.20;100224.47;5046674;28;20061;-63